sensor_id;sensor_type;location;lat;lon;timestamp;P1;durP1;ratioP1;P2;durP2;ratioP2
33190;SDS011;19554;42.652;23.364;2022-11-15T00:01:26;86.28;;;48.80;;
33190;SDS011;19554;42.652;23.364;2022-11-15T00:03:52;98.03;;;53.30;;
33190;SDS011;19554;42.652;23.364;2022-11-15T00:06:17;96.32;;;52.78;;
33190;SDS011;19554;42.652;23.364;2022-11-15T00:08:42;88.47;;;49.45;;
33190;SDS011;19554;42.652;23.364;2022-11-15T00:11:09;86.78;;;49.75;;
33190;SDS011;19554;42.652;23.364;2022-11-15T00:13:36;81.03;;;45.75;;
33190;SDS011;19554;42.652;23.364;2022-11-15T00:16:01;76.65;;;41.08;;
33190;SDS011;19554;42.652;23.364;2022-11-15T00:18:27;67.70;;;39.83;;
33190;SDS011;19554;42.652;23.364;2022-11-15T00:20:53;69.05;;;40.30;;
33190;SDS011;19554;42.652;23.364;2022-11-15T00:23:19;69.75;;;38.78;;
33190;SDS011;19554;42.652;23.364;2022-11-15T00:25:44;64.60;;;37.47;;
33190;SDS011;19554;42.652;23.364;2022-11-15T00:28:10;68.80;;;37.78;;
33190;SDS011;19554;42.652;23.364;2022-11-15T00:30:35;69.50;;;38.28;;
33190;SDS011;19554;42.652;23.364;2022-11-15T00:33:01;67.38;;;37.58;;
33190;SDS011;19554;42.652;23.364;2022-11-15T00:35:33;64.63;;;36.35;;
33190;SDS011;19554;42.652;23.364;2022-11-15T00:37:59;68.45;;;36.53;;
33190;SDS011;19554;42.652;23.364;2022-11-15T00:40:25;71.95;;;41.05;;
33190;SDS011;19554;42.652;23.364;2022-11-15T00:42:50;72.30;;;39.03;;
33190;SDS011;19554;42.652;23.364;2022-11-15T00:45:15;71.32;;;39.33;;
33190;SDS011;19554;42.652;23.364;2022-11-15T00:47:43;74.45;;;39.75;;
33190;SDS011;19554;42.652;23.364;2022-11-15T00:50:10;63.35;;;36.10;;
33190;SDS011;19554;42.652;23.364;2022-11-15T00:52:35;70.03;;;36.15;;
33190;SDS011;19554;42.652;23.364;2022-11-15T00:55:01;70.50;;;39.65;;
33190;SDS011;19554;42.652;23.364;2022-11-15T00:57:26;69.30;;;38.70;;
33190;SDS011;19554;42.652;23.364;2022-11-15T00:59:52;68.95;;;36.95;;
33190;SDS011;19554;42.652;23.364;2022-11-15T01:02:17;64.22;;;35.80;;
33190;SDS011;19554;42.652;23.364;2022-11-15T01:04:43;60.63;;;34.85;;
33190;SDS011;19554;42.652;23.364;2022-11-15T01:07:08;70.18;;;37.75;;
33190;SDS011;19554;42.652;23.364;2022-11-15T01:09:33;67.43;;;37.15;;
33190;SDS011;19554;42.652;23.364;2022-11-15T01:11:59;68.10;;;38.25;;
33190;SDS011;19554;42.652;23.364;2022-11-15T01:14:24;70.68;;;39.00;;
33190;SDS011;19554;42.652;23.364;2022-11-15T01:16:49;64.25;;;37.30;;
33190;SDS011;19554;42.652;23.364;2022-11-15T01:19:15;69.32;;;41.50;;
33190;SDS011;19554;42.652;23.364;2022-11-15T01:21:40;76.75;;;42.53;;
33190;SDS011;19554;42.652;23.364;2022-11-15T01:24:06;78.22;;;41.75;;
33190;SDS011;19554;42.652;23.364;2022-11-15T01:26:31;77.88;;;44.55;;
33190;SDS011;19554;42.652;23.364;2022-11-15T01:28:56;76.88;;;44.08;;
33190;SDS011;19554;42.652;23.364;2022-11-15T01:31:22;80.85;;;44.40;;
33190;SDS011;19554;42.652;23.364;2022-11-15T01:33:47;84.78;;;46.85;;
33190;SDS011;19554;42.652;23.364;2022-11-15T01:36:14;95.75;;;51.53;;
33190;SDS011;19554;42.652;23.364;2022-11-15T01:38:41;85.60;;;48.05;;
33190;SDS011;19554;42.652;23.364;2022-11-15T01:41:13;83.53;;;43.75;;
33190;SDS011;19554;42.652;23.364;2022-11-15T01:43:44;82.30;;;45.28;;
33190;SDS011;19554;42.652;23.364;2022-11-15T01:48:46;78.50;;;44.45;;
33190;SDS011;19554;42.652;23.364;2022-11-15T01:51:12;81.68;;;45.08;;
33190;SDS011;19554;42.652;23.364;2022-11-15T01:53:41;75.90;;;42.05;;
33190;SDS011;19554;42.652;23.364;2022-11-15T01:56:16;72.70;;;39.75;;
33190;SDS011;19554;42.652;23.364;2022-11-15T01:58:45;75.43;;;43.03;;
33190;SDS011;19554;42.652;23.364;2022-11-15T02:01:12;82.00;;;42.85;;
33190;SDS011;19554;42.652;23.364;2022-11-15T02:06:35;78.53;;;41.53;;
33190;SDS011;19554;42.652;23.364;2022-11-15T02:09:00;67.97;;;36.83;;
33190;SDS011;19554;42.652;23.364;2022-11-15T02:11:26;60.65;;;36.15;;
33190;SDS011;19554;42.652;23.364;2022-11-15T02:13:52;65.60;;;36.65;;
33190;SDS011;19554;42.652;23.364;2022-11-15T02:16:23;67.50;;;36.53;;
33190;SDS011;19554;42.652;23.364;2022-11-15T02:38:37;93.50;;;48.00;;
33190;SDS011;19554;42.652;23.364;2022-11-15T02:41:30;80.10;;;45.47;;
33190;SDS011;19554;42.652;23.364;2022-11-15T02:44:04;78.90;;;43.95;;
33190;SDS011;19554;42.652;23.364;2022-11-15T02:49:50;85.07;;;44.22;;
33190;SDS011;19554;42.652;23.364;2022-11-15T02:52:17;73.38;;;41.78;;
33190;SDS011;19554;42.652;23.364;2022-11-15T02:54:53;77.75;;;42.97;;
33190;SDS011;19554;42.652;23.364;2022-11-15T02:57:22;72.10;;;41.67;;
33190;SDS011;19554;42.652;23.364;2022-11-15T03:08:29;75.22;;;42.92;;
33190;SDS011;19554;42.652;23.364;2022-11-15T03:13:57;76.05;;;41.20;;
33190;SDS011;19554;42.652;23.364;2022-11-15T03:16:34;63.22;;;38.45;;
33190;SDS011;19554;42.652;23.364;2022-11-15T03:19:14;67.53;;;37.20;;
33190;SDS011;19554;42.652;23.364;2022-11-15T03:21:49;69.63;;;39.13;;
33190;SDS011;19554;42.652;23.364;2022-11-15T03:24:17;69.30;;;38.28;;
33190;SDS011;19554;42.652;23.364;2022-11-15T03:26:45;72.50;;;36.78;;
33190;SDS011;19554;42.652;23.364;2022-11-15T03:29:14;67.55;;;38.30;;
33190;SDS011;19554;42.652;23.364;2022-11-15T03:31:45;70.97;;;38.03;;
33190;SDS011;19554;42.652;23.364;2022-11-15T03:36:52;97.70;;;48.72;;
33190;SDS011;19554;42.652;23.364;2022-11-15T03:39:18;89.13;;;47.55;;
33190;SDS011;19554;42.652;23.364;2022-11-15T03:41:49;85.97;;;45.47;;
33190;SDS011;19554;42.652;23.364;2022-11-15T03:49:46;105.78;;;61.35;;
33190;SDS011;19554;42.652;23.364;2022-11-15T03:52:17;90.00;;;55.22;;
33190;SDS011;19554;42.652;23.364;2022-11-15T03:54:49;96.13;;;58.05;;
33190;SDS011;19554;42.652;23.364;2022-11-15T03:57:15;95.18;;;56.97;;
33190;SDS011;19554;42.652;23.364;2022-11-15T03:59:41;86.50;;;47.42;;
33190;SDS011;19554;42.652;23.364;2022-11-15T04:02:06;80.32;;;46.53;;
33190;SDS011;19554;42.652;23.364;2022-11-15T04:04:32;83.45;;;46.22;;
33190;SDS011;19554;42.652;23.364;2022-11-15T04:06:57;84.10;;;45.88;;
33190;SDS011;19554;42.652;23.364;2022-11-15T04:09:22;94.82;;;51.63;;
33190;SDS011;19554;42.652;23.364;2022-11-15T04:11:48;102.47;;;54.80;;
33190;SDS011;19554;42.652;23.364;2022-11-15T04:14:13;95.90;;;52.75;;
33190;SDS011;19554;42.652;23.364;2022-11-15T04:16:38;95.22;;;54.70;;
33190;SDS011;19554;42.652;23.364;2022-11-15T04:19:04;93.07;;;51.72;;
33190;SDS011;19554;42.652;23.364;2022-11-15T04:21:48;102.00;;;56.00;;
33190;SDS011;19554;42.652;23.364;2022-11-15T04:24:31;94.00;;;52.80;;
33190;SDS011;19554;42.652;23.364;2022-11-15T04:26:57;76.57;;;44.80;;
33190;SDS011;19554;42.652;23.364;2022-11-15T04:29:22;56.15;;;33.85;;
33190;SDS011;19554;42.652;23.364;2022-11-15T04:32:00;63.92;;;35.25;;
33190;SDS011;19554;42.652;23.364;2022-11-15T04:34:27;53.75;;;32.58;;
33190;SDS011;19554;42.652;23.364;2022-11-15T04:36:52;51.10;;;31.00;;
33190;SDS011;19554;42.652;23.364;2022-11-15T04:39:36;52.80;;;33.55;;
33190;SDS011;19554;42.652;23.364;2022-11-15T04:42:02;52.20;;;32.85;;
33190;SDS011;19554;42.652;23.364;2022-11-15T04:44:27;62.70;;;36.80;;
33190;SDS011;19554;42.652;23.364;2022-11-15T04:46:53;60.03;;;35.53;;
33190;SDS011;19554;42.652;23.364;2022-11-15T04:49:18;71.50;;;39.03;;
33190;SDS011;19554;42.652;23.364;2022-11-15T04:51:44;75.45;;;40.88;;
33190;SDS011;19554;42.652;23.364;2022-11-15T04:54:09;85.95;;;40.15;;
33190;SDS011;19554;42.652;23.364;2022-11-15T04:56:35;76.05;;;40.90;;
33190;SDS011;19554;42.652;23.364;2022-11-15T04:59:00;75.30;;;40.65;;
33190;SDS011;19554;42.652;23.364;2022-11-15T05:01:25;81.13;;;40.00;;
33190;SDS011;19554;42.652;23.364;2022-11-15T05:03:51;80.60;;;38.85;;
33190;SDS011;19554;42.652;23.364;2022-11-15T05:06:35;82.35;;;38.13;;
33190;SDS011;19554;42.652;23.364;2022-11-15T05:09:00;68.18;;;36.05;;
33190;SDS011;19554;42.652;23.364;2022-11-15T05:11:26;65.72;;;35.58;;
33190;SDS011;19554;42.652;23.364;2022-11-15T05:13:52;71.38;;;35.80;;
33190;SDS011;19554;42.652;23.364;2022-11-15T05:16:18;80.47;;;38.63;;
33190;SDS011;19554;42.652;23.364;2022-11-15T05:18:43;72.63;;;37.22;;
33190;SDS011;19554;42.652;23.364;2022-11-15T05:21:10;71.40;;;35.22;;
33190;SDS011;19554;42.652;23.364;2022-11-15T05:23:37;78.50;;;37.58;;
33190;SDS011;19554;42.652;23.364;2022-11-15T05:26:04;73.28;;;37.47;;
33190;SDS011;19554;42.652;23.364;2022-11-15T05:28:30;70.88;;;34.60;;
33190;SDS011;19554;42.652;23.364;2022-11-15T05:31:00;61.50;;;35.38;;
33190;SDS011;19554;42.652;23.364;2022-11-15T05:33:26;61.78;;;34.70;;
33190;SDS011;19554;42.652;23.364;2022-11-15T05:35:54;67.85;;;32.78;;
33190;SDS011;19554;42.652;23.364;2022-11-15T05:38:25;69.22;;;34.95;;
33190;SDS011;19554;42.652;23.364;2022-11-15T05:40:51;69.18;;;35.50;;
33190;SDS011;19554;42.652;23.364;2022-11-15T05:43:16;73.80;;;35.38;;
33190;SDS011;19554;42.652;23.364;2022-11-15T05:45:42;63.25;;;34.28;;
33190;SDS011;19554;42.652;23.364;2022-11-15T05:48:07;67.47;;;35.90;;
33190;SDS011;19554;42.652;23.364;2022-11-15T05:50:35;73.93;;;36.15;;
33190;SDS011;19554;42.652;23.364;2022-11-15T05:53:03;67.18;;;37.10;;
33190;SDS011;19554;42.652;23.364;2022-11-15T05:55:29;62.00;;;33.58;;
33190;SDS011;19554;42.652;23.364;2022-11-15T05:57:55;60.67;;;34.22;;
33190;SDS011;19554;42.652;23.364;2022-11-15T06:00:20;56.15;;;31.58;;
33190;SDS011;19554;42.652;23.364;2022-11-15T06:02:46;63.15;;;31.98;;
33190;SDS011;19554;42.652;23.364;2022-11-15T06:05:11;65.75;;;32.80;;
33190;SDS011;19554;42.652;23.364;2022-11-15T06:07:36;61.83;;;34.03;;
33190;SDS011;19554;42.652;23.364;2022-11-15T06:10:02;67.90;;;34.90;;
33190;SDS011;19554;42.652;23.364;2022-11-15T06:12:27;66.47;;;33.50;;
33190;SDS011;19554;42.652;23.364;2022-11-15T06:14:53;60.67;;;32.50;;
33190;SDS011;19554;42.652;23.364;2022-11-15T06:17:18;63.30;;;32.65;;
33190;SDS011;19554;42.652;23.364;2022-11-15T06:19:43;66.25;;;31.63;;
33190;SDS011;19554;42.652;23.364;2022-11-15T06:22:09;63.97;;;32.35;;
33190;SDS011;19554;42.652;23.364;2022-11-15T06:24:34;62.53;;;32.58;;
33190;SDS011;19554;42.652;23.364;2022-11-15T06:27:00;62.90;;;32.88;;
33190;SDS011;19554;42.652;23.364;2022-11-15T06:29:25;64.13;;;32.72;;
33190;SDS011;19554;42.652;23.364;2022-11-15T06:31:50;56.65;;;29.73;;
33190;SDS011;19554;42.652;23.364;2022-11-15T06:34:16;57.97;;;29.98;;
33190;SDS011;19554;42.652;23.364;2022-11-15T06:36:41;60.28;;;31.70;;
33190;SDS011;19554;42.652;23.364;2022-11-15T06:39:07;61.42;;;30.20;;
33190;SDS011;19554;42.652;23.364;2022-11-15T06:41:35;67.03;;;33.95;;
33190;SDS011;19554;42.652;23.364;2022-11-15T06:44:01;71.88;;;34.75;;
33190;SDS011;19554;42.652;23.364;2022-11-15T06:46:27;87.45;;;39.35;;
33190;SDS011;19554;42.652;23.364;2022-11-15T06:48:53;86.03;;;37.10;;
33190;SDS011;19554;42.652;23.364;2022-11-15T06:51:18;91.78;;;37.75;;
33190;SDS011;19554;42.652;23.364;2022-11-15T06:53:44;88.03;;;41.85;;
33190;SDS011;19554;42.652;23.364;2022-11-15T06:56:09;104.20;;;47.63;;
33190;SDS011;19554;42.652;23.364;2022-11-15T06:58:35;92.70;;;42.47;;
33190;SDS011;19554;42.652;23.364;2022-11-15T07:01:03;84.70;;;42.15;;
33190;SDS011;19554;42.652;23.364;2022-11-15T07:03:30;80.05;;;39.67;;
33190;SDS011;19554;42.652;23.364;2022-11-15T07:05:55;67.60;;;36.88;;
33190;SDS011;19554;42.652;23.364;2022-11-15T07:08:23;68.13;;;37.72;;
33190;SDS011;19554;42.652;23.364;2022-11-15T07:10:49;81.45;;;41.80;;
33190;SDS011;19554;42.652;23.364;2022-11-15T07:13:15;84.22;;;43.28;;
33190;SDS011;19554;42.652;23.364;2022-11-15T07:15:41;76.25;;;41.17;;
33190;SDS011;19554;42.652;23.364;2022-11-15T07:18:06;77.28;;;40.03;;
33190;SDS011;19554;42.652;23.364;2022-11-15T07:20:31;91.18;;;45.17;;
33190;SDS011;19554;42.652;23.364;2022-11-15T07:23:00;86.25;;;46.35;;
33190;SDS011;19554;42.652;23.364;2022-11-15T07:25:27;95.60;;;47.00;;
33190;SDS011;19554;42.652;23.364;2022-11-15T07:27:55;96.45;;;47.55;;
33190;SDS011;19554;42.652;23.364;2022-11-15T07:30:21;100.78;;;51.88;;
33190;SDS011;19554;42.652;23.364;2022-11-15T07:32:47;111.22;;;53.47;;
33190;SDS011;19554;42.652;23.364;2022-11-15T07:35:12;111.25;;;54.33;;
33190;SDS011;19554;42.652;23.364;2022-11-15T07:37:38;118.88;;;55.15;;
33190;SDS011;19554;42.652;23.364;2022-11-15T07:40:03;121.10;;;55.83;;
33190;SDS011;19554;42.652;23.364;2022-11-15T07:42:31;113.82;;;55.00;;
33190;SDS011;19554;42.652;23.364;2022-11-15T07:45:15;129.10;;;57.65;;
33190;SDS011;19554;42.652;23.364;2022-11-15T07:47:40;119.57;;;59.25;;
33190;SDS011;19554;42.652;23.364;2022-11-15T07:50:10;122.25;;;57.30;;
33190;SDS011;19554;42.652;23.364;2022-11-15T07:52:36;110.57;;;57.35;;
33190;SDS011;19554;42.652;23.364;2022-11-15T07:55:01;111.72;;;55.67;;
33190;SDS011;19554;42.652;23.364;2022-11-15T07:57:27;106.22;;;57.22;;
33190;SDS011;19554;42.652;23.364;2022-11-15T07:59:53;108.45;;;52.92;;
33190;SDS011;19554;42.652;23.364;2022-11-15T08:02:19;101.35;;;51.53;;
33190;SDS011;19554;42.652;23.364;2022-11-15T08:04:44;103.18;;;51.28;;
33190;SDS011;19554;42.652;23.364;2022-11-15T08:07:10;99.70;;;52.85;;
33190;SDS011;19554;42.652;23.364;2022-11-15T08:09:35;97.85;;;52.35;;
33190;SDS011;19554;42.652;23.364;2022-11-15T08:12:00;105.47;;;53.45;;
33190;SDS011;19554;42.652;23.364;2022-11-15T08:14:26;105.78;;;53.83;;
33190;SDS011;19554;42.652;23.364;2022-11-15T08:16:51;111.03;;;53.70;;
33190;SDS011;19554;42.652;23.364;2022-11-15T08:19:17;111.20;;;52.45;;
33190;SDS011;19554;42.652;23.364;2022-11-15T08:21:42;113.32;;;54.42;;
33190;SDS011;19554;42.652;23.364;2022-11-15T08:24:09;124.75;;;57.95;;
33190;SDS011;19554;42.652;23.364;2022-11-15T08:26:35;109.13;;;52.78;;
33190;SDS011;19554;42.652;23.364;2022-11-15T08:29:01;105.85;;;55.33;;
33190;SDS011;19554;42.652;23.364;2022-11-15T08:31:26;104.68;;;53.10;;
33190;SDS011;19554;42.652;23.364;2022-11-15T08:33:51;96.65;;;52.08;;
33190;SDS011;19554;42.652;23.364;2022-11-15T08:36:17;109.10;;;53.95;;
33190;SDS011;19554;42.652;23.364;2022-11-15T08:38:42;99.40;;;49.42;;
33190;SDS011;19554;42.652;23.364;2022-11-15T08:41:09;108.75;;;52.67;;
33190;SDS011;19554;42.652;23.364;2022-11-15T08:43:37;113.85;;;53.47;;
33190;SDS011;19554;42.652;23.364;2022-11-15T08:46:02;106.70;;;53.28;;
33190;SDS011;19554;42.652;23.364;2022-11-15T08:48:28;100.60;;;52.58;;
33190;SDS011;19554;42.652;23.364;2022-11-15T08:50:55;112.15;;;54.15;;
33190;SDS011;19554;42.652;23.364;2022-11-15T08:53:21;105.93;;;53.80;;
33190;SDS011;19554;42.652;23.364;2022-11-15T08:55:47;101.15;;;54.30;;
33190;SDS011;19554;42.652;23.364;2022-11-15T08:58:12;103.45;;;53.00;;
33190;SDS011;19554;42.652;23.364;2022-11-15T09:00:38;102.40;;;54.15;;
33190;SDS011;19554;42.652;23.364;2022-11-15T09:03:04;99.43;;;52.00;;
33190;SDS011;19554;42.652;23.364;2022-11-15T09:05:30;102.05;;;55.13;;
33190;SDS011;19554;42.652;23.364;2022-11-15T09:07:56;103.20;;;53.35;;
33190;SDS011;19554;42.652;23.364;2022-11-15T09:10:21;103.68;;;53.28;;
33190;SDS011;19554;42.652;23.364;2022-11-15T09:12:47;106.25;;;55.88;;
33190;SDS011;19554;42.652;23.364;2022-11-15T09:15:14;105.97;;;57.45;;
33190;SDS011;19554;42.652;23.364;2022-11-15T09:17:40;116.53;;;58.20;;
33190;SDS011;19554;42.652;23.364;2022-11-15T09:20:05;114.25;;;58.28;;
33190;SDS011;19554;42.652;23.364;2022-11-15T09:22:31;112.68;;;58.00;;
33190;SDS011;19554;42.652;23.364;2022-11-15T09:24:57;113.63;;;58.33;;
33190;SDS011;19554;42.652;23.364;2022-11-15T09:27:22;115.55;;;56.97;;
33190;SDS011;19554;42.652;23.364;2022-11-15T09:29:51;119.25;;;57.42;;
33190;SDS011;19554;42.652;23.364;2022-11-15T09:32:17;104.72;;;56.42;;
33190;SDS011;19554;42.652;23.364;2022-11-15T09:34:42;113.85;;;57.38;;
33190;SDS011;19554;42.652;23.364;2022-11-15T09:37:08;108.78;;;58.05;;
33190;SDS011;19554;42.652;23.364;2022-11-15T09:39:33;106.03;;;56.58;;
33190;SDS011;19554;42.652;23.364;2022-11-15T09:42:05;101.25;;;54.70;;
33190;SDS011;19554;42.652;23.364;2022-11-15T09:50:34;113.53;;;57.40;;
33190;SDS011;19554;42.652;23.364;2022-11-15T09:53:03;120.47;;;59.60;;
33190;SDS011;19554;42.652;23.364;2022-11-15T09:55:38;113.80;;;57.83;;
33190;SDS011;19554;42.652;23.364;2022-11-15T10:01:44;109.30;;;58.40;;
33190;SDS011;19554;42.652;23.364;2022-11-15T10:04:19;109.32;;;57.55;;
33190;SDS011;19554;42.652;23.364;2022-11-15T10:06:52;111.82;;;56.58;;
33190;SDS011;19554;42.652;23.364;2022-11-15T10:09:26;113.88;;;59.38;;
33190;SDS011;19554;42.652;23.364;2022-11-15T10:11:58;110.70;;;57.75;;
33190;SDS011;19554;42.652;23.364;2022-11-15T10:14:25;120.72;;;60.08;;
33190;SDS011;19554;42.652;23.364;2022-11-15T10:24:43;120.45;;;59.53;;
33190;SDS011;19554;42.652;23.364;2022-11-15T10:29:46;122.15;;;59.28;;
33190;SDS011;19554;42.652;23.364;2022-11-15T10:32:14;127.25;;;61.80;;
33190;SDS011;19554;42.652;23.364;2022-11-15T10:34:41;122.63;;;60.38;;
33190;SDS011;19554;42.652;23.364;2022-11-15T10:37:06;124.10;;;60.50;;
33190;SDS011;19554;42.652;23.364;2022-11-15T10:39:32;115.32;;;60.53;;
33190;SDS011;19554;42.652;23.364;2022-11-15T10:41:58;117.57;;;57.22;;
33190;SDS011;19554;42.652;23.364;2022-11-15T10:44:42;116.70;;;57.47;;
33190;SDS011;19554;42.652;23.364;2022-11-15T10:49:56;115.85;;;56.20;;
33190;SDS011;19554;42.652;23.364;2022-11-15T10:52:23;106.03;;;56.22;;
33190;SDS011;19554;42.652;23.364;2022-11-15T10:57:36;119.53;;;58.35;;
33190;SDS011;19554;42.652;23.364;2022-11-15T11:05:07;123.85;;;58.83;;
33190;SDS011;19554;42.652;23.364;2022-11-15T11:07:59;109.53;;;54.40;;
33190;SDS011;19554;42.652;23.364;2022-11-15T11:10:26;109.00;;;54.38;;
33190;SDS011;19554;42.652;23.364;2022-11-15T11:12:52;112.40;;;55.20;;
33190;SDS011;19554;42.652;23.364;2022-11-15T11:15:18;112.57;;;56.05;;
33190;SDS011;19554;42.652;23.364;2022-11-15T11:18:06;117.95;;;56.83;;
33190;SDS011;19554;42.652;23.364;2022-11-15T11:28:32;121.68;;;57.42;;
33190;SDS011;19554;42.652;23.364;2022-11-15T11:33:33;118.50;;;55.92;;
33190;SDS011;19554;42.652;23.364;2022-11-15T11:38:56;116.97;;;56.80;;
33190;SDS011;19554;42.652;23.364;2022-11-15T11:44:26;111.90;;;58.00;;
33190;SDS011;19554;42.652;23.364;2022-11-15T11:47:08;112.30;;;56.28;;
33190;SDS011;19554;42.652;23.364;2022-11-15T11:49:45;121.65;;;58.95;;
33190;SDS011;19554;42.652;23.364;2022-11-15T11:52:26;117.40;;;54.67;;
33190;SDS011;19554;42.652;23.364;2022-11-15T11:55:12;116.90;;;54.30;;
33190;SDS011;19554;42.652;23.364;2022-11-15T12:00:22;113.43;;;56.83;;
33190;SDS011;19554;42.652;23.364;2022-11-15T12:03:34;109.40;;;57.03;;
33190;SDS011;19554;42.652;23.364;2022-11-15T12:05:59;117.07;;;57.83;;
33190;SDS011;19554;42.652;23.364;2022-11-15T12:11:22;105.93;;;54.17;;
33190;SDS011;19554;42.652;23.364;2022-11-15T12:14:25;111.82;;;56.55;;
33190;SDS011;19554;42.652;23.364;2022-11-15T12:16:55;109.35;;;55.05;;
33190;SDS011;19554;42.652;23.364;2022-11-15T12:19:20;111.20;;;54.83;;
33190;SDS011;19554;42.652;23.364;2022-11-15T12:24:42;107.40;;;56.22;;
33190;SDS011;19554;42.652;23.364;2022-11-15T12:29:48;116.55;;;55.50;;
33190;SDS011;19554;42.652;23.364;2022-11-15T12:34:51;107.60;;;55.05;;
33190;SDS011;19554;42.652;23.364;2022-11-15T12:42:59;104.35;;;54.63;;
33190;SDS011;19554;42.652;23.364;2022-11-15T12:45:37;107.10;;;55.38;;
33190;SDS011;19554;42.652;23.364;2022-11-15T13:09:52;104.28;;;54.20;;
33190;SDS011;19554;42.652;23.364;2022-11-15T13:20:26;100.93;;;54.63;;
33190;SDS011;19554;42.652;23.364;2022-11-15T13:22:39;104.68;;;55.90;;
33190;SDS011;19554;42.652;23.364;2022-11-15T13:25:22;103.88;;;54.33;;
33190;SDS011;19554;42.652;23.364;2022-11-15T13:28:48;107.72;;;54.60;;
33190;SDS011;19554;42.652;23.364;2022-11-15T13:31:13;95.50;;;50.20;;
33190;SDS011;19554;42.652;23.364;2022-11-15T13:33:48;95.53;;;50.78;;
33190;SDS011;19554;42.652;23.364;2022-11-15T13:36:30;89.88;;;50.40;;
33190;SDS011;19554;42.652;23.364;2022-11-15T13:39:05;90.65;;;50.20;;
33190;SDS011;19554;42.652;23.364;2022-11-15T13:41:44;99.03;;;50.42;;
33190;SDS011;19554;42.652;23.364;2022-11-15T13:44:20;102.00;;;52.03;;
33190;SDS011;19554;42.652;23.364;2022-11-15T13:46:47;102.47;;;53.03;;
33190;SDS011;19554;42.652;23.364;2022-11-15T13:49:12;93.63;;;50.67;;
33190;SDS011;19554;42.652;23.364;2022-11-15T13:51:40;105.45;;;50.78;;
33190;SDS011;19554;42.652;23.364;2022-11-15T13:54:20;98.50;;;52.95;;
33190;SDS011;19554;42.652;23.364;2022-11-15T13:59:29;92.60;;;50.80;;
33190;SDS011;19554;42.652;23.364;2022-11-15T14:01:57;101.53;;;53.10;;
33190;SDS011;19554;42.652;23.364;2022-11-15T14:04:26;100.57;;;52.83;;
33190;SDS011;19554;42.652;23.364;2022-11-15T14:06:59;99.80;;;51.67;;
33190;SDS011;19554;42.652;23.364;2022-11-15T14:09:38;97.80;;;51.85;;
33190;SDS011;19554;42.652;23.364;2022-11-15T14:12:24;95.28;;;51.10;;
33190;SDS011;19554;42.652;23.364;2022-11-15T14:14:55;97.45;;;50.92;;
33190;SDS011;19554;42.652;23.364;2022-11-15T14:19:53;96.32;;;51.47;;
33190;SDS011;19554;42.652;23.364;2022-11-15T14:22:21;95.93;;;50.15;;
33190;SDS011;19554;42.652;23.364;2022-11-15T14:27:38;107.70;;;51.45;;
33190;SDS011;19554;42.652;23.364;2022-11-15T14:30:05;103.88;;;50.50;;
33190;SDS011;19554;42.652;23.364;2022-11-15T14:35:14;94.60;;;52.10;;
33190;SDS011;19554;42.652;23.364;2022-11-15T14:37:41;103.53;;;53.08;;
33190;SDS011;19554;42.652;23.364;2022-11-15T14:40:11;105.28;;;55.35;;
33190;SDS011;19554;42.652;23.364;2022-11-15T14:42:39;109.47;;;57.10;;
33190;SDS011;19554;42.652;23.364;2022-11-15T14:45:09;105.65;;;58.45;;
33190;SDS011;19554;42.652;23.364;2022-11-15T14:47:37;119.93;;;61.10;;
33190;SDS011;19554;42.652;23.364;2022-11-15T14:50:03;122.07;;;61.13;;
33190;SDS011;19554;42.652;23.364;2022-11-15T14:52:29;131.65;;;65.53;;
33190;SDS011;19554;42.652;23.364;2022-11-15T14:54:59;130.00;;;68.47;;
33190;SDS011;19554;42.652;23.364;2022-11-15T14:57:27;137.48;;;73.97;;
33190;SDS011;19554;42.652;23.364;2022-11-15T14:59:52;132.13;;;73.53;;
33190;SDS011;19554;42.652;23.364;2022-11-15T15:02:19;127.93;;;70.90;;
33190;SDS011;19554;42.652;23.364;2022-11-15T15:04:47;138.85;;;72.72;;
33190;SDS011;19554;42.652;23.364;2022-11-15T15:07:13;138.95;;;71.35;;
33190;SDS011;19554;42.652;23.364;2022-11-15T15:09:38;131.80;;;73.10;;
33190;SDS011;19554;42.652;23.364;2022-11-15T15:12:05;140.80;;;72.38;;
33190;SDS011;19554;42.652;23.364;2022-11-15T15:14:38;141.35;;;74.03;;
33190;SDS011;19554;42.652;23.364;2022-11-15T15:17:03;144.90;;;73.95;;
33190;SDS011;19554;42.652;23.364;2022-11-15T15:19:29;129.77;;;66.85;;
33190;SDS011;19554;42.652;23.364;2022-11-15T15:21:55;126.22;;;67.50;;
33190;SDS011;19554;42.652;23.364;2022-11-15T15:24:20;124.63;;;65.55;;
33190;SDS011;19554;42.652;23.364;2022-11-15T15:26:45;119.03;;;64.22;;
33190;SDS011;19554;42.652;23.364;2022-11-15T15:29:11;129.27;;;65.78;;
33190;SDS011;19554;42.652;23.364;2022-11-15T15:31:36;123.50;;;64.75;;
33190;SDS011;19554;42.652;23.364;2022-11-15T15:34:02;129.55;;;63.22;;
33190;SDS011;19554;42.652;23.364;2022-11-15T15:36:29;124.20;;;61.58;;
33190;SDS011;19554;42.652;23.364;2022-11-15T15:38:54;122.00;;;62.85;;
33190;SDS011;19554;42.652;23.364;2022-11-15T15:41:20;125.72;;;62.65;;
33190;SDS011;19554;42.652;23.364;2022-11-15T15:43:46;124.15;;;63.90;;
33190;SDS011;19554;42.652;23.364;2022-11-15T15:46:15;131.02;;;63.60;;
33190;SDS011;19554;42.652;23.364;2022-11-15T15:48:42;148.63;;;72.75;;
33190;SDS011;19554;42.652;23.364;2022-11-15T15:51:08;131.02;;;68.03;;
33190;SDS011;19554;42.652;23.364;2022-11-15T15:53:34;150.68;;;75.90;;
33190;SDS011;19554;42.652;23.364;2022-11-15T15:56:00;176.55;;;80.97;;
33190;SDS011;19554;42.652;23.364;2022-11-15T15:58:25;145.15;;;71.10;;
33190;SDS011;19554;42.652;23.364;2022-11-15T16:00:51;151.35;;;67.50;;
33190;SDS011;19554;42.652;23.364;2022-11-15T16:03:16;130.73;;;66.43;;
33190;SDS011;19554;42.652;23.364;2022-11-15T16:05:42;136.68;;;70.68;;
33190;SDS011;19554;42.652;23.364;2022-11-15T16:08:17;128.25;;;68.00;;
33190;SDS011;19554;42.652;23.364;2022-11-15T16:10:44;139.30;;;70.65;;
33190;SDS011;19554;42.652;23.364;2022-11-15T16:13:09;141.80;;;71.75;;
33190;SDS011;19554;42.652;23.364;2022-11-15T16:15:34;135.90;;;70.95;;
33190;SDS011;19554;42.652;23.364;2022-11-15T16:18:00;147.25;;;71.57;;
33190;SDS011;19554;42.652;23.364;2022-11-15T16:20:40;149.93;;;71.70;;
33190;SDS011;19554;42.652;23.364;2022-11-15T16:23:10;133.48;;;72.60;;
33190;SDS011;19554;42.652;23.364;2022-11-15T16:25:42;146.10;;;74.50;;
33190;SDS011;19554;42.652;23.364;2022-11-15T16:28:20;142.48;;;74.53;;
33190;SDS011;19554;42.652;23.364;2022-11-15T16:30:48;139.63;;;74.13;;
33190;SDS011;19554;42.652;23.364;2022-11-15T16:33:14;145.50;;;71.50;;
33190;SDS011;19554;42.652;23.364;2022-11-15T16:35:42;144.48;;;76.97;;
33190;SDS011;19554;42.652;23.364;2022-11-15T16:38:11;146.98;;;76.93;;
33190;SDS011;19554;42.652;23.364;2022-11-15T16:40:39;155.70;;;81.32;;
33190;SDS011;19554;42.652;23.364;2022-11-15T16:43:04;151.32;;;78.10;;
33190;SDS011;19554;42.652;23.364;2022-11-15T16:45:31;151.55;;;75.03;;